sensor_id;sensor_type;location;lat;lon;timestamp;temperature;humidity
36002;DHT22;22070;50.922;5.430;2024-01-07T00:00:03;4.50;99.90
36002;DHT22;22070;50.922;5.430;2024-01-07T00:02:29;4.60;99.90
36002;DHT22;22070;50.922;5.430;2024-01-07T00:04:55;4.60;99.90
36002;DHT22;22070;50.922;5.430;2024-01-07T00:07:21;4.60;99.90
36002;DHT22;22070;50.922;5.430;2024-01-07T00:09:47;4.50;99.90
36002;DHT22;22070;50.922;5.430;2024-01-07T00:12:12;4.40;99.90
36002;DHT22;22070;50.922;5.430;2024-01-07T00:14:38;4.30;99.90
36002;DHT22;22070;50.922;5.430;2024-01-07T00:17:04;4.30;99.90
36002;DHT22;22070;50.922;5.430;2024-01-07T00:19:29;4.20;99.90
36002;DHT22;22070;50.922;5.430;2024-01-07T00:21:57;4.20;99.90
36002;DHT22;22070;50.922;5.430;2024-01-07T00:24:23;4.20;99.90
36002;DHT22;22070;50.922;5.430;2024-01-07T00:26:51;4.20;99.90
36002;DHT22;22070;50.922;5.430;2024-01-07T00:29:17;4.30;99.90
36002;DHT22;22070;50.922;5.430;2024-01-07T00:31:42;4.20;99.90
36002;DHT22;22070;50.922;5.430;2024-01-07T00:34:08;4.30;99.90
36002;DHT22;22070;50.922;5.430;2024-01-07T00:36:34;4.10;99.90
36002;DHT22;22070;50.922;5.430;2024-01-07T00:38:59;4.10;99.90
36002;DHT22;22070;50.922;5.430;2024-01-07T00:41:25;4.00;99.90
36002;DHT22;22070;50.922;5.430;2024-01-07T00:43:51;4.00;99.90
36002;DHT22;22070;50.922;5.430;2024-01-07T00:46:17;3.90;99.90
36002;DHT22;22070;50.922;5.430;2024-01-07T00:48:43;3.90;99.90
36002;DHT22;22070;50.922;5.430;2024-01-07T00:51:09;3.80;99.90
36002;DHT22;22070;50.922;5.430;2024-01-07T00:53:34;3.80;99.90
36002;DHT22;22070;50.922;5.430;2024-01-07T00:56:00;3.80;99.90
36002;DHT22;22070;50.922;5.430;2024-01-07T00:58:26;3.80;99.90
36002;DHT22;22070;50.922;5.430;2024-01-07T01:00:51;3.80;99.90
36002;DHT22;22070;50.922;5.430;2024-01-07T01:03:19;3.80;99.90
36002;DHT22;22070;50.922;5.430;2024-01-07T01:05:45;3.80;99.90
36002;DHT22;22070;50.922;5.430;2024-01-07T01:08:10;4.00;99.90
36002;DHT22;22070;50.922;5.430;2024-01-07T01:10:36;4.00;99.90
36002;DHT22;22070;50.922;5.430;2024-01-07T01:13:02;4.00;99.90
36002;DHT22;22070;50.922;5.430;2024-01-07T01:15:28;4.00;99.90
36002;DHT22;22070;50.922;5.430;2024-01-07T01:17:53;3.90;99.90
36002;DHT22;22070;50.922;5.430;2024-01-07T01:20:19;3.90;99.90
36002;DHT22;22070;50.922;5.430;2024-01-07T01:22:45;4.00;99.90
36002;DHT22;22070;50.922;5.430;2024-01-07T01:25:10;4.00;99.90
36002;DHT22;22070;50.922;5.430;2024-01-07T01:27:36;3.90;99.90
36002;DHT22;22070;50.922;5.430;2024-01-07T01:30:02;3.90;99.90
36002;DHT22;22070;50.922;5.430;2024-01-07T01:32:28;3.90;99.90
36002;DHT22;22070;50.922;5.430;2024-01-07T01:34:54;3.90;99.90
36002;DHT22;22070;50.922;5.430;2024-01-07T01:37:19;4.00;99.90
36002;DHT22;22070;50.922;5.430;2024-01-07T01:39:45;3.90;99.90
36002;DHT22;22070;50.922;5.430;2024-01-07T01:42:10;3.90;99.90
36002;DHT22;22070;50.922;5.430;2024-01-07T01:44:36;3.90;99.90
36002;DHT22;22070;50.922;5.430;2024-01-07T01:47:02;4.00;99.90
36002;DHT22;22070;50.922;5.430;2024-01-07T01:49:28;4.00;99.90
36002;DHT22;22070;50.922;5.430;2024-01-07T01:51:53;3.90;99.90
36002;DHT22;22070;50.922;5.430;2024-01-07T01:54:20;4.00;99.90
36002;DHT22;22070;50.922;5.430;2024-01-07T01:56:47;4.00;99.90
36002;DHT22;22070;50.922;5.430;2024-01-07T01:59:13;3.90;99.90
36002;DHT22;22070;50.922;5.430;2024-01-07T02:01:39;4.00;99.90
36002;DHT22;22070;50.922;5.430;2024-01-07T02:04:05;4.00;99.90
36002;DHT22;22070;50.922;5.430;2024-01-07T02:06:31;3.90;99.90
36002;DHT22;22070;50.922;5.430;2024-01-07T02:08:56;4.00;99.90
36002;DHT22;22070;50.922;5.430;2024-01-07T02:11:23;3.90;99.90
36002;DHT22;22070;50.922;5.430;2024-01-07T02:13:49;3.90;99.90
36002;DHT22;22070;50.922;5.430;2024-01-07T02:16:15;4.00;99.90
36002;DHT22;22070;50.922;5.430;2024-01-07T02:18:43;4.00;99.90
36002;DHT22;22070;50.922;5.430;2024-01-07T02:21:10;4.00;99.90
36002;DHT22;22070;50.922;5.430;2024-01-07T02:23:36;3.90;99.90
36002;DHT22;22070;50.922;5.430;2024-01-07T02:26:02;3.90;99.90
36002;DHT22;22070;50.922;5.430;2024-01-07T02:28:32;3.80;99.90
36002;DHT22;22070;50.922;5.430;2024-01-07T02:30:57;3.70;99.90
36002;DHT22;22070;50.922;5.430;2024-01-07T02:33:23;3.70;99.90
36002;DHT22;22070;50.922;5.430;2024-01-07T02:35:49;3.60;99.90
36002;DHT22;22070;50.922;5.430;2024-01-07T02:38:15;3.60;99.90
36002;DHT22;22070;50.922;5.430;2024-01-07T02:40:40;3.70;99.90
36002;DHT22;22070;50.922;5.430;2024-01-07T02:43:06;3.60;99.90
36002;DHT22;22070;50.922;5.430;2024-01-07T02:45:32;3.60;99.90
36002;DHT22;22070;50.922;5.430;2024-01-07T02:47:57;3.60;99.90
36002;DHT22;22070;50.922;5.430;2024-01-07T02:50:23;3.70;99.90
36002;DHT22;22070;50.922;5.430;2024-01-07T02:52:49;3.60;99.90
36002;DHT22;22070;50.922;5.430;2024-01-07T02:55:14;3.60;99.90
36002;DHT22;22070;50.922;5.430;2024-01-07T02:57:40;3.60;99.90
36002;DHT22;22070;50.922;5.430;2024-01-07T03:00:06;3.60;99.90
36002;DHT22;22070;50.922;5.430;2024-01-07T03:02:33;4.10;99.90
36002;DHT22;22070;50.922;5.430;2024-01-07T03:04:58;3.70;99.90
36002;DHT22;22070;50.922;5.430;2024-01-07T03:07:24;3.60;99.90
36002;DHT22;22070;50.922;5.430;2024-01-07T03:09:50;3.60;99.90
36002;DHT22;22070;50.922;5.430;2024-01-07T03:12:16;3.70;99.90
36002;DHT22;22070;50.922;5.430;2024-01-07T03:14:42;3.60;99.90
36002;DHT22;22070;50.922;5.430;2024-01-07T03:17:09;3.60;99.90
36002;DHT22;22070;50.922;5.430;2024-01-07T03:19:35;3.60;99.90
36002;DHT22;22070;50.922;5.430;2024-01-07T03:22:00;3.50;99.90
36002;DHT22;22070;50.922;5.430;2024-01-07T03:24:26;3.40;99.90
36002;DHT22;22070;50.922;5.430;2024-01-07T03:26:52;3.50;99.90
36002;DHT22;22070;50.922;5.430;2024-01-07T03:29:17;3.50;99.90
36002;DHT22;22070;50.922;5.430;2024-01-07T03:31:43;3.50;99.90
36002;DHT22;22070;50.922;5.430;2024-01-07T03:34:09;3.60;99.90
36002;DHT22;22070;50.922;5.430;2024-01-07T03:36:35;3.60;99.90
36002;DHT22;22070;50.922;5.430;2024-01-07T03:39:00;3.50;99.90
36002;DHT22;22070;50.922;5.430;2024-01-07T03:41:26;3.50;99.90
36002;DHT22;22070;50.922;5.430;2024-01-07T03:43:51;3.60;99.90
36002;DHT22;22070;50.922;5.430;2024-01-07T03:46:18;3.50;99.90
36002;DHT22;22070;50.922;5.430;2024-01-07T03:48:44;3.50;99.90
36002;DHT22;22070;50.922;5.430;2024-01-07T03:51:10;3.50;99.90
36002;DHT22;22070;50.922;5.430;2024-01-07T03:53:36;3.60;99.90
36002;DHT22;22070;50.922;5.430;2024-01-07T03:56:02;3.40;99.90
36002;DHT22;22070;50.922;5.430;2024-01-07T03:58:27;3.40;99.90
36002;DHT22;22070;50.922;5.430;2024-01-07T04:00:53;3.50;99.90
36002;DHT22;22070;50.922;5.430;2024-01-07T04:03:19;3.60;99.90
36002;DHT22;22070;50.922;5.430;2024-01-07T04:05:44;3.60;99.90
36002;DHT22;22070;50.922;5.430;2024-01-07T04:08:13;3.50;99.90
36002;DHT22;22070;50.922;5.430;2024-01-07T04:10:41;3.50;99.90
36002;DHT22;22070;50.922;5.430;2024-01-07T04:13:07;3.50;99.90
36002;DHT22;22070;50.922;5.430;2024-01-07T04:15:33;3.50;99.90
36002;DHT22;22070;50.922;5.430;2024-01-07T04:18:01;3.50;99.90
36002;DHT22;22070;50.922;5.430;2024-01-07T04:20:28;3.50;99.90
36002;DHT22;22070;50.922;5.430;2024-01-07T04:22:54;3.50;99.90
36002;DHT22;22070;50.922;5.430;2024-01-07T04:25:19;3.50;99.90
36002;DHT22;22070;50.922;5.430;2024-01-07T04:27:45;3.60;99.90
36002;DHT22;22070;50.922;5.430;2024-01-07T04:30:11;3.70;99.90
36002;DHT22;22070;50.922;5.430;2024-01-07T04:32:36;3.50;99.90
36002;DHT22;22070;50.922;5.430;2024-01-07T04:35:02;3.50;99.90
36002;DHT22;22070;50.922;5.430;2024-01-07T04:37:28;3.50;99.90
36002;DHT22;22070;50.922;5.430;2024-01-07T04:39:54;3.50;99.90
36002;DHT22;22070;50.922;5.430;2024-01-07T04:42:19;3.40;99.90
36002;DHT22;22070;50.922;5.430;2024-01-07T04:44:45;3.30;99.90
36002;DHT22;22070;50.922;5.430;2024-01-07T04:47:30;3.40;99.90
36002;DHT22;22070;50.922;5.430;2024-01-07T04:49:57;3.50;99.90
36002;DHT22;22070;50.922;5.430;2024-01-07T04:52:23;3.50;99.90
36002;DHT22;22070;50.922;5.430;2024-01-07T04:54:51;3.50;99.90
36002;DHT22;22070;50.922;5.430;2024-01-07T04:57:17;3.60;99.90
36002;DHT22;22070;50.922;5.430;2024-01-07T04:59:42;3.60;99.90
36002;DHT22;22070;50.922;5.430;2024-01-07T05:02:08;3.50;99.90
36002;DHT22;22070;50.922;5.430;2024-01-07T05:04:35;3.60;99.90
36002;DHT22;22070;50.922;5.430;2024-01-07T05:07:01;3.40;99.90
36002;DHT22;22070;50.922;5.430;2024-01-07T05:09:26;3.40;99.90
36002;DHT22;22070;50.922;5.430;2024-01-07T05:11:52;3.50;99.90
36002;DHT22;22070;50.922;5.430;2024-01-07T05:14:18;3.50;99.90
36002;DHT22;22070;50.922;5.430;2024-01-07T05:16:43;3.50;99.90
36002;DHT22;22070;50.922;5.430;2024-01-07T05:19:10;3.50;99.90
36002;DHT22;22070;50.922;5.430;2024-01-07T05:21:36;3.50;99.90
36002;DHT22;22070;50.922;5.430;2024-01-07T05:24:02;3.50;99.90
36002;DHT22;22070;50.922;5.430;2024-01-07T05:26:27;3.50;99.90
36002;DHT22;22070;50.922;5.430;2024-01-07T05:28:53;3.50;99.90
36002;DHT22;22070;50.922;5.430;2024-01-07T05:31:19;3.40;99.90
36002;DHT22;22070;50.922;5.430;2024-01-07T05:33:45;3.40;99.90
36002;DHT22;22070;50.922;5.430;2024-01-07T05:36:14;3.40;99.90
36002;DHT22;22070;50.922;5.430;2024-01-07T05:38:43;3.40;99.90
36002;DHT22;22070;50.922;5.430;2024-01-07T05:41:09;3.40;99.90
36002;DHT22;22070;50.922;5.430;2024-01-07T05:43:36;3.40;99.90
36002;DHT22;22070;50.922;5.430;2024-01-07T05:46:02;3.30;99.90
36002;DHT22;22070;50.922;5.430;2024-01-07T05:48:28;3.30;99.90
36002;DHT22;22070;50.922;5.430;2024-01-07T05:50:54;3.30;99.90
36002;DHT22;22070;50.922;5.430;2024-01-07T05:53:20;3.30;99.90
36002;DHT22;22070;50.922;5.430;2024-01-07T05:55:46;3.30;99.90
36002;DHT22;22070;50.922;5.430;2024-01-07T05:58:11;3.30;99.90
36002;DHT22;22070;50.922;5.430;2024-01-07T06:00:38;3.30;99.90
36002;DHT22;22070;50.922;5.430;2024-01-07T06:03:03;3.30;99.90
36002;DHT22;22070;50.922;5.430;2024-01-07T06:05:29;3.30;99.90
36002;DHT22;22070;50.922;5.430;2024-01-07T06:07:55;3.30;99.90
36002;DHT22;22070;50.922;5.430;2024-01-07T06:10:21;3.30;99.90
36002;DHT22;22070;50.922;5.430;2024-01-07T06:12:46;3.30;99.90
36002;DHT22;22070;50.922;5.430;2024-01-07T06:15:12;3.40;99.90
36002;DHT22;22070;50.922;5.430;2024-01-07T06:17:38;3.40;99.90
36002;DHT22;22070;50.922;5.430;2024-01-07T06:20:04;3.40;99.90
36002;DHT22;22070;50.922;5.430;2024-01-07T06:22:31;3.40;99.90
36002;DHT22;22070;50.922;5.430;2024-01-07T06:24:56;3.40;99.90
36002;DHT22;22070;50.922;5.430;2024-01-07T06:27:22;3.40;99.90
36002;DHT22;22070;50.922;5.430;2024-01-07T06:29:48;3.50;99.90
36002;DHT22;22070;50.922;5.430;2024-01-07T06:32:13;3.40;99.90
36002;DHT22;22070;50.922;5.430;2024-01-07T06:34:39;3.40;99.90
36002;DHT22;22070;50.922;5.430;2024-01-07T06:37:05;3.40;99.90
36002;DHT22;22070;50.922;5.430;2024-01-07T06:39:33;3.40;99.90
36002;DHT22;22070;50.922;5.430;2024-01-07T06:41:59;3.40;99.90
36002;DHT22;22070;50.922;5.430;2024-01-07T06:44:25;3.40;99.90
36002;DHT22;22070;50.922;5.430;2024-01-07T06:46:51;3.50;99.90
36002;DHT22;22070;50.922;5.430;2024-01-07T06:49:16;3.60;99.90
36002;DHT22;22070;50.922;5.430;2024-01-07T06:51:43;3.50;99.90
36002;DHT22;22070;50.922;5.430;2024-01-07T06:54:08;3.50;99.90
36002;DHT22;22070;50.922;5.430;2024-01-07T06:56:34;3.40;99.90
36002;DHT22;22070;50.922;5.430;2024-01-07T06:59:00;3.30;99.90
36002;DHT22;22070;50.922;5.430;2024-01-07T07:01:25;3.30;99.90
36002;DHT22;22070;50.922;5.430;2024-01-07T07:03:51;3.20;99.90
36002;DHT22;22070;50.922;5.430;2024-01-07T07:06:17;3.30;99.90
36002;DHT22;22070;50.922;5.430;2024-01-07T07:08:42;3.30;99.90
36002;DHT22;22070;50.922;5.430;2024-01-07T07:11:08;3.30;99.90
36002;DHT22;22070;50.922;5.430;2024-01-07T07:13:34;3.20;99.90
36002;DHT22;22070;50.922;5.430;2024-01-07T07:16:00;3.10;99.90
36002;DHT22;22070;50.922;5.430;2024-01-07T07:18:25;3.00;99.90
36002;DHT22;22070;50.922;5.430;2024-01-07T07:20:51;3.10;99.90
36002;DHT22;22070;50.922;5.430;2024-01-07T07:23:17;3.00;99.90
36002;DHT22;22070;50.922;5.430;2024-01-07T07:25:43;3.10;99.90
36002;DHT22;22070;50.922;5.430;2024-01-07T07:28:08;3.20;99.90
36002;DHT22;22070;50.922;5.430;2024-01-07T07:30:34;3.20;99.90
36002;DHT22;22070;50.922;5.430;2024-01-07T07:33:00;3.00;99.90
36002;DHT22;22070;50.922;5.430;2024-01-07T07:35:25;3.30;99.90
36002;DHT22;22070;50.922;5.430;2024-01-07T07:37:51;3.30;99.90
36002;DHT22;22070;50.922;5.430;2024-01-07T07:40:16;3.20;99.90
36002;DHT22;22070;50.922;5.430;2024-01-07T07:42:42;3.30;99.90
36002;DHT22;22070;50.922;5.430;2024-01-07T07:45:09;3.30;99.90
36002;DHT22;22070;50.922;5.430;2024-01-07T07:47:34;3.30;99.90
36002;DHT22;22070;50.922;5.430;2024-01-07T07:50:00;3.30;99.90
36002;DHT22;22070;50.922;5.430;2024-01-07T07:52:27;3.30;99.90
36002;DHT22;22070;50.922;5.430;2024-01-07T07:54:53;3.30;99.90
36002;DHT22;22070;50.922;5.430;2024-01-07T07:57:19;3.30;99.90
36002;DHT22;22070;50.922;5.430;2024-01-07T07:59:47;3.30;99.90
36002;DHT22;22070;50.922;5.430;2024-01-07T08:02:13;3.20;99.90
36002;DHT22;22070;50.922;5.430;2024-01-07T08:04:39;3.20;99.90
36002;DHT22;22070;50.922;5.430;2024-01-07T08:07:09;3.10;99.90
36002;DHT22;22070;50.922;5.430;2024-01-07T08:09:36;3.20;99.90
36002;DHT22;22070;50.922;5.430;2024-01-07T08:12:05;3.20;99.90
36002;DHT22;22070;50.922;5.430;2024-01-07T08:14:31;3.30;99.90
36002;DHT22;22070;50.922;5.430;2024-01-07T08:16:57;3.20;99.90
36002;DHT22;22070;50.922;5.430;2024-01-07T08:19:23;3.20;99.90
36002;DHT22;22070;50.922;5.430;2024-01-07T08:21:48;3.20;99.90
36002;DHT22;22070;50.922;5.430;2024-01-07T08:24:14;3.10;99.90
36002;DHT22;22070;50.922;5.430;2024-01-07T08:26:40;3.20;99.90
36002;DHT22;22070;50.922;5.430;2024-01-07T08:29:05;3.10;99.90
36002;DHT22;22070;50.922;5.430;2024-01-07T08:31:32;3.00;99.90
36002;DHT22;22070;50.922;5.430;2024-01-07T08:33:57;3.10;99.90
36002;DHT22;22070;50.922;5.430;2024-01-07T08:36:23;3.00;99.90
36002;DHT22;22070;50.922;5.430;2024-01-07T08:38:49;2.90;99.90
36002;DHT22;22070;50.922;5.430;2024-01-07T08:41:18;2.80;99.90
36002;DHT22;22070;50.922;5.430;2024-01-07T08:43:44;2.80;99.90
36002;DHT22;22070;50.922;5.430;2024-01-07T08:46:12;2.90;99.90
36002;DHT22;22070;50.922;5.430;2024-01-07T08:48:39;2.80;99.90
36002;DHT22;22070;50.922;5.430;2024-01-07T08:51:05;2.70;99.90
36002;DHT22;22070;50.922;5.430;2024-01-07T08:53:31;2.60;99.90
36002;DHT22;22070;50.922;5.430;2024-01-07T08:55:57;2.70;99.90
36002;DHT22;22070;50.922;5.430;2024-01-07T08:58:23;2.70;99.90
36002;DHT22;22070;50.922;5.430;2024-01-07T09:00:49;2.70;99.90
36002;DHT22;22070;50.922;5.430;2024-01-07T09:03:14;2.80;99.90
36002;DHT22;22070;50.922;5.430;2024-01-07T09:05:40;2.70;99.90
36002;DHT22;22070;50.922;5.430;2024-01-07T09:08:06;2.50;99.90
36002;DHT22;22070;50.922;5.430;2024-01-07T09:10:32;2.60;99.90
36002;DHT22;22070;50.922;5.430;2024-01-07T09:12:59;2.90;99.90
36002;DHT22;22070;50.922;5.430;2024-01-07T09:15:25;2.70;99.90
36002;DHT22;22070;50.922;5.430;2024-01-07T09:17:51;2.70;99.90
36002;DHT22;22070;50.922;5.430;2024-01-07T09:20:17;2.80;99.90
36002;DHT22;22070;50.922;5.430;2024-01-07T09:22:42;2.90;99.90
36002;DHT22;22070;50.922;5.430;2024-01-07T09:25:09;2.90;99.90
36002;DHT22;22070;50.922;5.430;2024-01-07T09:27:35;2.90;99.90
36002;DHT22;22070;50.922;5.430;2024-01-07T09:30:03;3.00;99.90
36002;DHT22;22070;50.922;5.430;2024-01-07T09:32:29;3.00;99.90
36002;DHT22;22070;50.922;5.430;2024-01-07T09:34:54;3.10;99.90
36002;DHT22;22070;50.922;5.430;2024-01-07T09:37:20;3.10;99.90
36002;DHT22;22070;50.922;5.430;2024-01-07T09:39:46;3.00;99.90
36002;DHT22;22070;50.922;5.430;2024-01-07T09:42:16;3.00;99.90
36002;DHT22;22070;50.922;5.430;2024-01-07T09:44:43;3.00;99.90
36002;DHT22;22070;50.922;5.430;2024-01-07T09:47:14;2.80;99.90
36002;DHT22;22070;50.922;5.430;2024-01-07T09:49:40;2.90;99.90
36002;DHT22;22070;50.922;5.430;2024-01-07T09:52:08;2.80;99.90
36002;DHT22;22070;50.922;5.430;2024-01-07T09:54:39;2.80;99.90
36002;DHT22;22070;50.922;5.430;2024-01-07T09:57:06;2.70;99.90
36002;DHT22;22070;50.922;5.430;2024-01-07T09:59:33;2.70;99.90
36002;DHT22;22070;50.922;5.430;2024-01-07T10:01:59;2.80;99.90
36002;DHT22;22070;50.922;5.430;2024-01-07T10:04:26;2.80;99.90
36002;DHT22;22070;50.922;5.430;2024-01-07T10:06:53;2.70;99.90
36002;DHT22;22070;50.922;5.430;2024-01-07T10:09:21;2.60;99.90
36002;DHT22;22070;50.922;5.430;2024-01-07T10:11:47;2.60;99.90
36002;DHT22;22070;50.922;5.430;2024-01-07T10:14:13;2.50;99.90
36002;DHT22;22070;50.922;5.430;2024-01-07T10:16:39;2.60;99.90
36002;DHT22;22070;50.922;5.430;2024-01-07T10:19:05;2.60;99.90
36002;DHT22;22070;50.922;5.430;2024-01-07T10:21:30;2.70;99.90
36002;DHT22;22070;50.922;5.430;2024-01-07T10:24:12;2.70;99.90
36002;DHT22;22070;50.922;5.430;2024-01-07T10:26:39;2.80;99.90
36002;DHT22;22070;50.922;5.430;2024-01-07T10:29:05;2.70;99.90
36002;DHT22;22070;50.922;5.430;2024-01-07T10:31:32;2.70;99.90
36002;DHT22;22070;50.922;5.430;2024-01-07T10:33:57;2.80;99.90
36002;DHT22;22070;50.922;5.430;2024-01-07T10:36:24;2.70;99.90
36002;DHT22;22070;50.922;5.430;2024-01-07T10:38:51;2.90;99.90
36002;DHT22;22070;50.922;5.430;2024-01-07T10:41:20;2.90;99.90
36002;DHT22;22070;50.922;5.430;2024-01-07T10:43:49;3.20;99.90
36002;DHT22;22070;50.922;5.430;2024-01-07T10:46:15;2.90;99.90
36002;DHT22;22070;50.922;5.430;2024-01-07T10:48:55;2.90;99.90
36002;DHT22;22070;50.922;5.430;2024-01-07T10:51:21;2.90;99.90
36002;DHT22;22070;50.922;5.430;2024-01-07T10:53:52;2.90;99.90
36002;DHT22;22070;50.922;5.430;2024-01-07T10:56:23;2.80;99.90
36002;DHT22;22070;50.922;5.430;2024-01-07T10:58:52;2.70;99.90
36002;DHT22;22070;50.922;5.430;2024-01-07T11:01:19;2.70;99.90
36002;DHT22;22070;50.922;5.430;2024-01-07T11:06:52;2.70;99.90
36002;DHT22;22070;50.922;5.430;2024-01-07T11:10:04;2.70;99.90
36002;DHT22;22070;50.922;5.430;2024-01-07T11:12:32;2.70;99.90
36002;DHT22;22070;50.922;5.430;2024-01-07T11:14:57;2.70;99.90
36002;DHT22;22070;50.922;5.430;2024-01-07T11:17:40;2.70;99.90
36002;DHT22;22070;50.922;5.430;2024-01-07T11:20:13;2.70;99.90
36002;DHT22;22070;50.922;5.430;2024-01-07T11:22:39;2.80;99.90
36002;DHT22;22070;50.922;5.430;2024-01-07T11:25:31;2.90;99.90
36002;DHT22;22070;50.922;5.430;2024-01-07T11:27:58;2.80;99.90
36002;DHT22;22070;50.922;5.430;2024-01-07T11:30:26;2.80;99.90
36002;DHT22;22070;50.922;5.430;2024-01-07T11:32:59;2.80;99.90
36002;DHT22;22070;50.922;5.430;2024-01-07T11:35:54;2.80;99.90
36002;DHT22;22070;50.922;5.430;2024-01-07T11:38:22;2.80;99.90
36002;DHT22;22070;50.922;5.430;2024-01-07T11:40:49;2.70;99.90
36002;DHT22;22070;50.922;5.430;2024-01-07T11:43:14;2.70;99.90
36002;DHT22;22070;50.922;5.430;2024-01-07T11:45:40;2.60;99.90
36002;DHT22;22070;50.922;5.430;2024-01-07T11:48:07;2.60;99.90
36002;DHT22;22070;50.922;5.430;2024-01-07T11:50:32;2.60;99.90
36002;DHT22;22070;50.922;5.430;2024-01-07T11:52:58;2.50;99.90
36002;DHT22;22070;50.922;5.430;2024-01-07T11:55:26;2.50;99.90
36002;DHT22;22070;50.922;5.430;2024-01-07T11:57:52;2.50;99.90
36002;DHT22;22070;50.922;5.430;2024-01-07T12:00:18;2.50;99.90
36002;DHT22;22070;50.922;5.430;2024-01-07T12:02:45;2.60;99.90
36002;DHT22;22070;50.922;5.430;2024-01-07T12:05:11;2.80;99.90
36002;DHT22;22070;50.922;5.430;2024-01-07T12:07:38;3.00;99.90
36002;DHT22;22070;50.922;5.430;2024-01-07T12:10:07;2.60;99.90
36002;DHT22;22070;50.922;5.430;2024-01-07T12:12:36;2.60;99.90
36002;DHT22;22070;50.922;5.430;2024-01-07T12:15:02;2.60;99.90
36002;DHT22;22070;50.922;5.430;2024-01-07T12:17:30;2.40;99.90
36002;DHT22;22070;50.922;5.430;2024-01-07T12:19:56;2.60;99.90
36002;DHT22;22070;50.922;5.430;2024-01-07T12:22:22;2.60;99.90
36002;DHT22;22070;50.922;5.430;2024-01-07T12:25:00;2.60;99.90
36002;DHT22;22070;50.922;5.430;2024-01-07T12:27:26;2.60;99.90
36002;DHT22;22070;50.922;5.430;2024-01-07T12:29:58;2.50;99.90
36002;DHT22;22070;50.922;5.430;2024-01-07T12:32:28;2.50;99.90
36002;DHT22;22070;50.922;5.430;2024-01-07T12:34:57;2.50;99.90
36002;DHT22;22070;50.922;5.430;2024-01-07T12:37:26;2.50;99.90
36002;DHT22;22070;50.922;5.430;2024-01-07T12:39:52;2.40;99.90
36002;DHT22;22070;50.922;5.430;2024-01-07T12:42:18;2.40;99.90
36002;DHT22;22070;50.922;5.430;2024-01-07T12:44:44;2.40;99.90
36002;DHT22;22070;50.922;5.430;2024-01-07T12:47:09;2.40;99.90
36002;DHT22;22070;50.922;5.430;2024-01-07T12:49:35;2.50;99.90
36002;DHT22;22070;50.922;5.430;2024-01-07T12:52:01;2.50;99.90
36002;DHT22;22070;50.922;5.430;2024-01-07T12:54:26;2.30;99.90
36002;DHT22;22070;50.922;5.430;2024-01-07T12:56:52;2.30;99.90
36002;DHT22;22070;50.922;5.430;2024-01-07T12:59:18;2.50;99.90
36002;DHT22;22070;50.922;5.430;2024-01-07T13:01:44;2.50;99.90
36002;DHT22;22070;50.922;5.430;2024-01-07T13:04:09;2.50;99.90
36002;DHT22;22070;50.922;5.430;2024-01-07T13:06:35;2.50;99.90
36002;DHT22;22070;50.922;5.430;2024-01-07T13:09:01;3.20;99.90
36002;DHT22;22070;50.922;5.430;2024-01-07T13:11:29;2.50;99.90
36002;DHT22;22070;50.922;5.430;2024-01-07T13:13:55;2.40;99.90
36002;DHT22;22070;50.922;5.430;2024-01-07T13:16:25;2.70;99.90
36002;DHT22;22070;50.922;5.430;2024-01-07T13:18:51;2.50;99.90
36002;DHT22;22070;50.922;5.430;2024-01-07T13:21:17;2.60;99.90
36002;DHT22;22070;50.922;5.430;2024-01-07T13:23:43;2.60;99.90
36002;DHT22;22070;50.922;5.430;2024-01-07T13:26:10;2.40;99.90
36002;DHT22;22070;50.922;5.430;2024-01-07T13:28:35;2.50;99.90
36002;DHT22;22070;50.922;5.430;2024-01-07T13:31:01;2.40;99.90
36002;DHT22;22070;50.922;5.430;2024-01-07T13:33:29;2.40;99.90
36002;DHT22;22070;50.922;5.430;2024-01-07T13:35:55;2.40;99.90
36002;DHT22;22070;50.922;5.430;2024-01-07T13:38:20;2.50;99.90
36002;DHT22;22070;50.922;5.430;2024-01-07T13:40:47;2.50;99.90
36002;DHT22;22070;50.922;5.430;2024-01-07T13:43:13;2.40;99.90
36002;DHT22;22070;50.922;5.430;2024-01-07T13:45:38;2.40;99.90
36002;DHT22;22070;50.922;5.430;2024-01-07T13:48:04;2.20;99.90
36002;DHT22;22070;50.922;5.430;2024-01-07T13:50:32;2.20;99.90
36002;DHT22;22070;50.922;5.430;2024-01-07T13:52:58;2.20;99.90
36002;DHT22;22070;50.922;5.430;2024-01-07T13:55:24;2.20;99.90
36002;DHT22;22070;50.922;5.430;2024-01-07T13:57:50;2.30;99.90
36002;DHT22;22070;50.922;5.430;2024-01-07T14:00:16;2.40;99.90
36002;DHT22;22070;50.922;5.430;2024-01-07T14:02:44;2.40;99.90
36002;DHT22;22070;50.922;5.430;2024-01-07T14:05:11;2.40;99.90
36002;DHT22;22070;50.922;5.430;2024-01-07T14:07:38;2.40;99.90
36002;DHT22;22070;50.922;5.430;2024-01-07T14:10:04;2.40;99.90
36002;DHT22;22070;50.922;5.430;2024-01-07T14:12:31;2.30;99.90
36002;DHT22;22070;50.922;5.430;2024-01-07T14:14:57;2.30;99.90
36002;DHT22;22070;50.922;5.430;2024-01-07T14:17:24;2.50;99.90
36002;DHT22;22070;50.922;5.430;2024-01-07T14:19:50;2.20;99.90
36002;DHT22;22070;50.922;5.430;2024-01-07T14:22:17;2.20;99.90
36002;DHT22;22070;50.922;5.430;2024-01-07T14:24:43;2.20;99.90
36002;DHT22;22070;50.922;5.430;2024-01-07T14:27:09;2.20;99.90
36002;DHT22;22070;50.922;5.430;2024-01-07T14:29:37;2.20;99.90
36002;DHT22;22070;50.922;5.430;2024-01-07T14:32:06;2.10;99.90
36002;DHT22;22070;50.922;5.430;2024-01-07T14:34:31;2.10;99.90
36002;DHT22;22070;50.922;5.430;2024-01-07T14:36:58;2.00;99.90
36002;DHT22;22070;50.922;5.430;2024-01-07T14:39:23;2.00;99.90
36002;DHT22;22070;50.922;5.430;2024-01-07T14:41:49;1.90;99.90
36002;DHT22;22070;50.922;5.430;2024-01-07T14:44:14;1.90;99.90
36002;DHT22;22070;50.922;5.430;2024-01-07T14:46:40;2.00;99.90
36002;DHT22;22070;50.922;5.430;2024-01-07T14:49:06;2.00;99.90
36002;DHT22;22070;50.922;5.430;2024-01-07T14:51:32;2.10;99.90
36002;DHT22;22070;50.922;5.430;2024-01-07T14:53:58;2.10;99.90
36002;DHT22;22070;50.922;5.430;2024-01-07T14:56:24;2.00;99.90
36002;DHT22;22070;50.922;5.430;2024-01-07T14:58:49;2.00;99.90
36002;DHT22;22070;50.922;5.430;2024-01-07T15:01:16;2.00;99.90
36002;DHT22;22070;50.922;5.430;2024-01-07T15:03:42;2.00;99.90
36002;DHT22;22070;50.922;5.430;2024-01-07T15:06:07;2.30;99.90
36002;DHT22;22070;50.922;5.430;2024-01-07T15:08:37;2.00;99.90
36002;DHT22;22070;50.922;5.430;2024-01-07T15:11:03;1.90;99.90
36002;DHT22;22070;50.922;5.430;2024-01-07T15:13:29;1.90;99.90
36002;DHT22;22070;50.922;5.430;2024-01-07T15:15:55;1.90;99.90
36002;DHT22;22070;50.922;5.430;2024-01-07T15:18:21;1.80;99.90
36002;DHT22;22070;50.922;5.430;2024-01-07T15:20:47;1.80;99.90
36002;DHT22;22070;50.922;5.430;2024-01-07T15:23:12;1.70;99.90
36002;DHT22;22070;50.922;5.430;2024-01-07T15:25:38;1.60;99.90
36002;DHT22;22070;50.922;5.430;2024-01-07T15:28:04;1.60;99.90
36002;DHT22;22070;50.922;5.430;2024-01-07T15:30:30;1.60;99.90
36002;DHT22;22070;50.922;5.430;2024-01-07T15:32:55;1.50;99.90
36002;DHT22;22070;50.922;5.430;2024-01-07T15:35:22;1.50;99.90
36002;DHT22;22070;50.922;5.430;2024-01-07T15:37:47;1.40;99.90
36002;DHT22;22070;50.922;5.430;2024-01-07T15:40:14;1.40;99.90
36002;DHT22;22070;50.922;5.430;2024-01-07T15:42:40;1.40;99.90